地図

経路データ

SID SEASON NUMBER BASIN SUBBASIN NAME ISO_TIME NATURE LAT LON WMO_WIND WMO_PRES WMO_AGENCY TRACK_TYPE DIST2LAND LANDFALL IFLAG USA_AGENCY USA_ATCF_ID USA_LAT USA_LON USA_RECORD USA_STATUS USA_WIND USA_PRES USA_SSHS USA_R34_NE USA_R34_SE USA_R34_SW USA_R34_NW USA_R50_NE USA_R50_SE USA_R50_SW USA_R50_NW USA_R64_NE USA_R64_SE USA_R64_SW USA_R64_NW USA_POCI USA_ROCI USA_RMW USA_EYE TOKYO_LAT TOKYO_LON TOKYO_GRADE TOKYO_WIND TOKYO_PRES TOKYO_R50_DIR TOKYO_R50_LONG TOKYO_R50_SHORT TOKYO_R30_DIR TOKYO_R30_LONG TOKYO_R30_SHORT TOKYO_LAND CMA_LAT CMA_LON CMA_CAT CMA_WIND CMA_PRES HKO_LAT HKO_LON HKO_CAT HKO_WIND HKO_PRES NEWDELHI_LAT NEWDELHI_LON NEWDELHI_GRADE NEWDELHI_WIND NEWDELHI_PRES NEWDELHI_CI NEWDELHI_DP NEWDELHI_POCI REUNION_LAT REUNION_LON REUNION_TYPE REUNION_WIND REUNION_PRES REUNION_TNUM REUNION_CI REUNION_RMW REUNION_R34_NE REUNION_R34_SE REUNION_R34_SW REUNION_R34_NW REUNION_R50_NE REUNION_R50_SE REUNION_R50_SW REUNION_R50_NW REUNION_R64_NE REUNION_R64_SE REUNION_R64_SW REUNION_R64_NW BOM_LAT BOM_LON BOM_TYPE BOM_WIND BOM_PRES BOM_TNUM BOM_CI BOM_RMW BOM_R34_NE BOM_R34_SE BOM_R34_SW BOM_R34_NW BOM_R50_NE BOM_R50_SE BOM_R50_SW BOM_R50_NW BOM_R64_NE BOM_R64_SE BOM_R64_SW BOM_R64_NW BOM_ROCI BOM_POCI BOM_EYE BOM_POS_METHOD BOM_PRES_METHOD NADI_LAT NADI_LON NADI_CAT NADI_WIND NADI_PRES WELLINGTON_LAT WELLINGTON_LON WELLINGTON_WIND WELLINGTON_PRES DS824_LAT DS824_LON DS824_STAGE DS824_WIND DS824_PRES TD9636_LAT TD9636_LON TD9636_STAGE TD9636_WIND TD9636_PRES TD9635_LAT TD9635_LON TD9635_WIND TD9635_PRES TD9635_ROCI NEUMANN_LAT NEUMANN_LON NEUMANN_CLASS NEUMANN_WIND NEUMANN_PRES MLC_LAT MLC_LON MLC_CLASS MLC_WIND MLC_PRES USA_GUST BOM_GUST BOM_GUST_PER REUNION_GUST REUNION_GUST_PER USA_SEAHGT USA_SEARAD_NE USA_SEARAD_SE USA_SEARAD_SW USA_SEARAD_NW STORM_SPEED STORM_DIR
1969363S21042 1970 119 SI MM DELPHINE 1969-12-29 06:00:00 TS -21.0000 42.0000 reunion main 161 161 _____O______O_ -1 -21.0000 42.0000 2 9.90000 -21.0000 42.0000 TC 25 2 12
1969363S21042 1970 119 SI MM DELPHINE 1969-12-29 09:00:00 TS -20.8975 42.0000 main 165 165 _____P______P_ -1 -20.8975 42.0000 2 -20.8975 42.0000 TC 25 2 8
1969363S21042 1970 119 SI MM DELPHINE 1969-12-29 12:00:00 TS -20.8000 42.0000 reunion main 169 169 _____O______O_ -1 -20.8000 42.0000 99 9.90000 -20.8000 42.0000 TC 25 2 0
1969363S21042 1970 119 SI MM DELPHINE 1969-12-29 15:00:00 TS -20.7075 42.0000 main 174 174 _____P______P_ -1 -20.7075 42.0000 99 -20.7075 42.0000 TC 27 2 8
1969363S21042 1970 119 SI MM DELPHINE 1969-12-29 18:00:00 TS -20.6000 42.0000 reunion main 179 179 _____O______O_ -1 -20.6000 42.0000 99 9.90000 -20.6000 42.0000 TC 30 3 2
1969363S21042 1970 119 SI MM DELPHINE 1969-12-29 21:00:00 TS -20.4575 42.0000 main 185 185 _____P______P_ -1 -20.4575 42.0000 99 -20.4575 42.0000 TC 30 3 0
1969363S21042 1970 119 SI MM DELPHINE 1969-12-30 00:00:00 TS -20.3000 42.0000 reunion main 198 198 _____O______O_ -1 -20.3000 42.0000 99 9.90000 -20.3000 42.0000 TC 30 3 10
1969363S21042 1970 119 SI MM DELPHINE 1969-12-30 03:00:00 TS -20.1274 42.0525 main 203 203 _____P______P_ -1 -20.1274 42.0525 99 -20.1274 42.0525 TC 32 3 0
1969363S21042 1970 119 SI MM DELPHINE 1969-12-30 06:00:00 TS -20.0000 42.0000 reunion main 217 217 _____O______O_ -1 -20.0000 42.0000 3 9.90000 -20.0000 42.0000 TC 35 4 295
1969363S21042 1970 119 SI MM DELPHINE 1969-12-30 09:00:00 TS -19.9776 41.7100 main 244 244 _____P______P_ -1 -19.9776 41.7100 3 -19.9776 41.7100 TC 35 7 270
1969363S21042 1970 119 SI MM DELPHINE 1969-12-30 12:00:00 TS -20.0000 41.3000 reunion main 277 277 _____O______O_ -1 -20.0000 41.3000 99 9.90000 -20.0000 41.3000 TC 35 8 268
1969363S21042 1970 119 SI MM DELPHINE 1969-12-30 15:00:00 TS -20.0000 40.8925 main 312 312 _____P______P_ -1 -20.0000 40.8925 99 -20.0000 40.8925 TC 32 8 270
1969363S21042 1970 119 SI MM DELPHINE 1969-12-30 18:00:00 TS -20.0000 40.5000 reunion main 349 349 _____O______O_ -1 -20.0000 40.5000 99 9.90000 -20.0000 40.5000 TC 30 6 270
1969363S21042 1970 119 SI MM DELPHINE 1969-12-30 21:00:00 TS -19.9997 40.2075 main 355 346 _____P______P_ -1 -19.9997 40.2075 99 -19.9997 40.2075 TC 30 6 270
1969363S21042 1970 119 SI MM DELPHINE 1969-12-31 00:00:00 TS -20.0000 39.9000 reunion main 346 335 _____O______O_ -1 -20.0000 39.9000 99 9.90000 -20.0000 39.9000 TC 30 7 270
1969363S21042 1970 119 SI MM DELPHINE 1969-12-31 03:00:00 TS -20.0002 39.4500 main 335 298 _____P______P_ -1 -20.0002 39.4500 99 -20.0002 39.4500 TC 30 8 270
1969363S21042 1970 119 SI MM DELPHINE 1969-12-31 06:00:00 TS -20.0000 39.0000 reunion main 298 276 _____O______O_ -1 -20.0000 39.0000 2 9.90000 -20.0000 39.0000 TC 30 7 270
1969363S21042 1970 119 SI MM DELPHINE 1969-12-31 09:00:00 TS -19.9998 38.6700 main 276 252 _____P______P_ -1 -19.9998 38.6700 2 -19.9998 38.6700 TC 30 6 270
1969363S21042 1970 119 SI MM DELPHINE 1969-12-31 12:00:00 TS -20.0000 38.4000 reunion main 252 234 _____O______O_ -1 -20.0000 38.4000 99 9.90000 -20.0000 38.4000 TC 30 5 270
1969363S21042 1970 119 SI MM DELPHINE 1969-12-31 15:00:00 TS -19.9998 38.1650 main 234 208 _____P______P_ -1 -19.9998 38.1650 99 -19.9998 38.1650 TC 30 5 270
1969363S21042 1970 119 SI MM DELPHINE 1969-12-31 18:00:00 TS -20.0000 37.9000 reunion main 208 183 _____O______O_ -1 -20.0000 37.9000 99 9.90000 -20.0000 37.9000 TC 30 6 270
1969363S21042 1970 119 SI MM DELPHINE 1969-12-31 21:00:00 TS -19.9999 37.5450 main 175 148 _____P______P_ -1 -19.9999 37.5450 99 -19.9999 37.5450 TC 27 8 270
1969363S21042 1970 119 SI MM DELPHINE 1970-01-01 00:00:00 TS -20.0000 37.1000 reunion main 148 127 _____O______O_ -1 -20.0000 37.1000 99 9.90000 -20.0000 37.1000 TC 25 9 270
1969363S21042 1970 119 SI MM DELPHINE 1970-01-01 03:00:00 TS -20.0004 36.5725 main 127 91 _____P______P_ -1 -20.0004 36.5725 99 -20.0004 36.5725 TC 25 10 270
1969363S21042 1970 119 SI MM DELPHINE 1970-01-01 06:00:00 TS -20.0000 36.0000 reunion main 91 _____O______O_ -1 -20.0000 36.0000 6 9.90000 -20.0000 36.0000 TC 25 11 270

IBTrACS Databaseについて

本データベースは、米国NOAAが公開する1842年以降の世界の熱帯低気圧のベストトラックデータアーカイブInternational Best Track Archive for Climate Stewardship (IBTrACS)を、ウェブで閲覧しやすい形式に変換したものです。

最終更新日:2021-11-26